Weather History for EGVA - November, 2012

Change the Weather History Date:

Saturday, November 17, 2012

  Actual Average Record
Temperature  
Mean Temperature 44 °F -  
Max Temperature 53 °F 46 °F 59 °F (2015)
Min Temperature 33 °F 34 °F 24 °F (2005)
Degree Days  
Heating Degree Days 22    
Moisture  
Dew Point 45 °F    
Average Humidity 87    
Maximum Humidity 100    
Minimum Humidity 75    
Precipitation  
Precipitation 0.00 in - - ()
Sea Level Pressure  
Sea Level Pressure 29.72 in    
Wind  
Wind Speed 7 mph ()    
Max Wind Speed 13 mph    
Max Gust Speed -    
Visibility 6.1 miles    
Events Rain    
Averages and records for this station are not official NWS values.
T = Trace of Precipitation, MM = Missing Value Source: Averaged Metar Reports

Daily Weather History Graph

Daily Weather History Graph

Search for Another Location

Airport or City:

Trip Planner

Search our weather history database for the weather conditions in past years. The results will help you decide how hot, cold, wet, or windy it might be!

Date:

Astronomy

Nov. 17, 2012 Rise Set
Actual Time 7:29 AM GMT 4:13 PM GMT
Civil Twilight 6:52 AM GMT 4:51 PM GMT
Nautical Twilight 6:11 AM GMT 5:32 PM GMT
Astronomical Twilight 5:31 AM GMT 6:12 PM GMT
Moon 11:05 AM GMT (11/17) 8:06 PM GMT (11/17)
Length of Visible Light 9h 59m
Length of Day
8h 44m
Waxing Crescent, 18% of the Moon is Illuminated
Nov 17
Waxing Crescent
Nov 20
First Quarter
Nov 28
Full
Dec 6
Last Quarter
Dec 13
New

Hourly Weather History & Observations

Time (GMT) Temp. Windchill Dew Point Humidity Pressure Visibility Wind Dir Wind Speed Gust Speed Precip Events Conditions
12:58 AM 51.1 °F - 50.2 °F 97% 29.71 in 5.6 mi SSE 4.6 mph - N/A   Overcast
1:01 AM 51.8 °F - 50.0 °F 94% 29.68 in 5.6 mi SSE 5.8 mph - N/A   Overcast
1:08 AM 51.8 °F - 50.0 °F 94% 29.68 in 5.6 mi SSE 5.8 mph - N/A   Overcast
1:43 AM 51.8 °F - 50.0 °F 94% 29.67 in 5.6 mi South 6.9 mph - N/A   Overcast
1:57 AM 51.8 °F - 50.0 °F 94% 29.67 in 6.2 mi South 6.9 mph - N/A   Mostly Cloudy
1:58 AM 51.8 °F - 50.0 °F 94% 29.69 in 6.2 mi South 6.9 mph - N/A   Mostly Cloudy
2:02 AM 51.8 °F - 50.0 °F 94% 29.67 in 6.2 mi South 6.9 mph - N/A   Overcast
2:12 AM 51.8 °F - 50.0 °F 94% 29.67 in 6.2 mi South 6.9 mph - N/A   Overcast
2:19 AM 51.8 °F - 51.8 °F 100% 29.66 in 6.2 mi South 6.9 mph - N/A   Overcast
2:34 AM 51.8 °F - 51.8 °F 100% 29.66 in 6.2 mi South 6.9 mph - N/A   Overcast
2:58 AM 52.3 °F - 51.3 °F 96% 29.67 in 6.2 mi South 8.1 mph - N/A   Overcast
3:08 AM 53.6 °F - 51.8 °F 94% 29.65 in 6.2 mi South 8.1 mph - N/A   Overcast
3:16 AM 53.6 °F - 51.8 °F 94% 29.64 in 6.2 mi South 8.1 mph - N/A   Overcast
3:40 AM 53.6 °F - 51.8 °F 94% 29.64 in 5.6 mi SSW 9.2 mph - N/A   Overcast
3:45 AM 53.6 °F - 51.8 °F 94% 29.64 in 5.0 mi SSW 6.9 mph - N/A   Overcast
3:52 AM 53.6 °F - 51.8 °F 94% 29.64 in 3.7 mi SSW 8.1 mph - N/A   Overcast
3:58 AM 53.6 °F - 51.8 °F 94% 29.65 in 3.7 mi SSW 9.2 mph - N/A   Overcast
4:03 AM 53.6 °F - 51.8 °F 94% 29.64 in 5.0 mi SSW 9.2 mph - N/A   Overcast
4:07 AM 53.6 °F - 51.8 °F 94% 29.64 in 5.6 mi SSW 11.5 mph - N/A   Overcast
4:19 AM 53.6 °F - 51.8 °F 94% 29.64 in 6.2 mi SSW 9.2 mph - N/A   Overcast
4:33 AM 53.6 °F - 51.8 °F 94% 29.64 in 6.2 mi SSW 10.4 mph - N/A   Overcast
4:58 AM 53.4 °F - 52.0 °F 95% 29.65 in 6.2 mi SSW 10.4 mph - N/A   Overcast
5:01 AM 53.6 °F - 51.8 °F 94% 29.64 in 6.2 mi SW 10.4 mph - N/A   Overcast
5:27 AM 53.6 °F - 51.8 °F 94% 29.64 in 6.2 mi WSW 12.7 mph - N/A   Overcast
5:58 AM 52.2 °F - 50.2 °F 93% 29.67 in 6.2 mi West 12.7 mph - N/A   Overcast
6:04 AM 51.8 °F - 50.0 °F 94% 29.66 in 6.2 mi WNW 12.7 mph - N/A   Overcast
6:11 AM 50.0 °F - 48.2 °F 94% 29.66 in 6.2 mi NW 10.4 mph - N/A   Overcast
6:22 AM 50.0 °F - 48.2 °F 94% 29.67 in 6.2 mi NW 8.1 mph - N/A   Overcast
6:45 AM 48.2 °F - 46.4 °F 93% 29.68 in 6.2 mi WNW 11.5 mph - N/A   Overcast
6:54 AM 48.2 °F - 46.4 °F 93% 29.68 in 6.2 mi WNW 8.1 mph - N/A   Overcast
6:58 AM 48.0 °F - 45.9 °F 92% 29.70 in 6.2 mi WNW 8.1 mph - N/A   Overcast
7:00 AM 48.2 °F - 46.4 °F 93% 29.68 in 6.2 mi WNW 8.1 mph - N/A   Overcast
7:01 AM 48.2 °F - 46.4 °F 93% 29.68 in 6.2 mi WNW 8.1 mph - N/A   Overcast
7:08 AM 48.2 °F - 44.6 °F 87% 29.69 in 6.2 mi WNW 6.9 mph - N/A   Light Drizzle
7:14 AM 48.2 °F - 44.6 °F 87% 29.69 in 6.2 mi NW 5.8 mph - N/A   Light Drizzle
7:20 AM 48.2 °F - 44.6 °F 87% 29.69 in 6.2 mi NW 4.6 mph - N/A   Light Drizzle
7:21 AM 48.2 °F - 44.6 °F 87% 29.70 in 6.2 mi NNW 4.6 mph - N/A   Overcast
7:24 AM 46.4 °F 44.3 °F 44.6 °F 93% 29.70 in 6.2 mi NNW 4.6 mph - N/A   Overcast
7:25 AM 46.4 °F 44.3 °F 44.6 °F 93% 29.70 in 6.2 mi NW 4.6 mph - N/A   Overcast
7:47 AM 46.4 °F - 44.6 °F 93% 29.70 in 6.2 mi WNW 2.3 mph - N/A   Overcast
7:58 AM 47.1 °F - 45.0 °F 92% 29.73 in 6.2 mi West 3.5 mph - 0.00 in   Overcast
8:11 AM 46.4 °F 43.5 °F 44.6 °F 93% 29.71 in 6.2 mi West 5.8 mph - N/A   Overcast
8:45 AM 46.4 °F 44.3 °F 44.6 °F 93% 29.72 in 6.2 mi West 4.6 mph - N/A   Overcast
8:58 AM 47.3 °F - 45.5 °F 93% 29.74 in 6.2 mi West 4.6 mph - N/A   Overcast
9:34 AM 46.4 °F 43.5 °F 44.6 °F 93% 29.73 in 6.2 mi West 5.8 mph - N/A   Scattered Clouds
9:58 AM 48.0 °F - 45.5 °F 91% 29.76 in 6.2 mi West 4.6 mph - N/A   Clear
10:14 AM 50.0 °F - 46.4 °F 87% 29.75 in 6.2 mi West 5.8 mph - N/A   Mostly Cloudy
10:35 AM 50.0 °F - 44.6 °F 82% 29.75 in 6.2 mi WNW 8.1 mph - N/A   Overcast
10:44 AM 50.0 °F - 44.6 °F 82% 29.75 in 6.2 mi Variable 5.8 mph - N/A   Overcast
10:51 AM 50.0 °F - 42.8 °F 76% 29.75 in 6.2 mi NNW 5.8 mph - N/A   Overcast
10:58 AM 50.0 °F - 43.2 °F 77% 29.75 in 6.2 mi NW 6.9 mph - N/A   Mostly Cloudy
11:04 AM 50.0 °F - 42.8 °F 76% 29.75 in 6.2 mi NW 9.2 mph - N/A   Scattered Clouds
11:19 AM 50.0 °F - 42.8 °F 76% 29.75 in 6.2 mi NW 6.9 mph - N/A   Mostly Cloudy
11:24 AM 50.0 °F - 42.8 °F 76% 29.75 in 6.2 mi WNW 9.2 mph - N/A   Mostly Cloudy
11:27 AM 50.0 °F - 42.8 °F 76% 29.75 in 6.2 mi WNW 9.2 mph - N/A   Mostly Cloudy
11:33 AM 50.0 °F - 42.8 °F 76% 29.75 in 6.2 mi NW 6.9 mph - N/A   Overcast
11:34 AM 50.0 °F - 42.8 °F 76% 29.74 in 6.2 mi NW 6.9 mph - N/A   Overcast
11:36 AM 50.0 °F - 42.8 °F 76% 29.74 in 6.2 mi NW 6.9 mph - N/A   Overcast
11:48 AM 50.0 °F - 42.8 °F 76% 29.75 in 6.2 mi NW 8.1 mph - N/A   Overcast
11:54 AM 50.0 °F - 42.8 °F 76% 29.75 in 6.2 mi NW 6.9 mph - N/A   Overcast
11:55 AM 50.0 °F - 42.8 °F 76% 29.75 in 6.2 mi NW 5.8 mph - N/A   Mostly Cloudy
11:58 AM 50.2 °F - 42.6 °F 75% 29.77 in 6.2 mi NW 8.1 mph - N/A   Overcast
12:25 PM 50.0 °F - 42.8 °F 76% 29.75 in 6.2 mi NW 6.9 mph - N/A   Overcast
12:27 PM 50.0 °F - 42.8 °F 76% 29.75 in 6.2 mi NW 5.8 mph - N/A   Overcast
12:34 PM 50.0 °F - 42.8 °F 76% 29.75 in 6.2 mi NW 6.9 mph - N/A   Overcast
12:40 PM 50.0 °F - 42.8 °F 76% 29.75 in 6.2 mi NW 5.8 mph - N/A   Overcast
12:43 PM 50.0 °F - 42.8 °F 76% 29.75 in 6.2 mi NW 6.9 mph - N/A   Overcast
12:58 PM 49.3 °F - 42.1 °F 76% 29.76 in 6.2 mi NW 6.9 mph - N/A   Overcast
1:55 PM 48.2 °F - 42.8 °F 82% 29.76 in 6.2 mi NNW 4.6 mph - N/A   Overcast
1:58 PM 49.1 °F - 42.6 °F 78% 29.78 in 6.2 mi NNW 4.6 mph - N/A   Overcast
2:23 PM 50.0 °F - 42.8 °F 76% 29.76 in 6.2 mi NW 4.6 mph - N/A   Overcast
2:52 PM 48.2 °F - 41.0 °F 76% 29.76 in 6.2 mi WNW 5.8 mph - N/A Rain Light Rain
2:58 PM 48.9 °F - 41.7 °F 76% 29.78 in 6.2 mi NW 5.8 mph - 0.00 in Rain Light Rain
3:01 PM 48.2 °F - 41.0 °F 76% 29.76 in 6.2 mi NW 5.8 mph - N/A   Scattered Clouds
3:48 PM 48.2 °F - 41.0 °F 76% 29.77 in 6.2 mi West 3.5 mph - N/A   Mostly Cloudy
3:58 PM 47.3 °F - 41.5 °F 80% 29.80 in 6.2 mi West 3.5 mph - 0.00 in   Overcast
4:38 PM 46.4 °F 44.3 °F 41.0 °F 81% 29.79 in 6.2 mi West 4.6 mph - N/A   Overcast
4:58 PM 44.8 °F 41.6 °F 40.5 °F 85% 29.81 in 6.2 mi West 5.8 mph - N/A   Mostly Cloudy
5:58 PM 41.7 °F 38.8 °F 38.7 °F 89% 29.82 in 6.2 mi WNW 4.6 mph - N/A   Clear
6:58 PM 44.4 °F 42.9 °F 38.1 °F 79% 29.84 in 6.2 mi WNW 3.5 mph - N/A   Partly Cloudy
7:58 PM 42.6 °F 39.9 °F 37.4 °F 82% 29.85 in 6.2 mi WNW 4.6 mph - N/A   Clear
8:58 PM 41.7 °F 39.8 °F 36.0 °F 80% 29.87 in 6.2 mi NW 3.5 mph - N/A   Clear
10:58 PM 34.3 °F 31.4 °F 32.5 °F 93% 29.88 in 6.2 mi SW 3.5 mph - N/A   Clear
11:58 PM 33.8 °F 30.8 °F 32.4 °F 94% 29.90 in 6.2 mi West 3.5 mph - N/A   Clear